Time;durP1;ratioP1;P1;durP2;ratioP2;P2;SDS_P1;SDS_P2;PMS_P1;PMS_P2;Temp;Humidity;BMP_temperature;BMP_pressure;BME280_temperature;BME280_humidity;BME280_pressure;Samples;Min_cycle;Max_cycle;Signal;HPM_P1;HPM_P2
2021/08/12 00:02:00;;;;;;;4.75;3.70;;;15.50;99.90;;;;;;5097339;28;20016;-74
2021/08/12 00:04:26;;;;;;;3.50;3.20;;;15.50;99.90;;;;;;5097561;28;20500;-74
2021/08/12 00:06:52;;;;;;;4.38;3.15;;;15.30;99.90;;;;;;5097406;28;20027;-74
2021/08/12 00:09:19;;;;;;;5.75;3.80;;;15.30;99.90;;;;;;5097240;28;20031;-74
2021/08/12 00:11:44;;;;;;;4.55;4.10;;;15.30;99.90;;;;;;5097172;28;20037;-74
2021/08/12 00:14:10;;;;;;;3.75;3.45;;;15.20;99.90;;;;;;5097520;28;20028;-74
2021/08/12 00:16:37;;;;;;;3.53;3.25;;;15.20;99.90;;;;;;5097176;28;20103;-74
2021/08/12 00:19:03;;;;;;;6.25;4.50;;;15.20;99.90;;;;;;5097391;28;20024;-75
2021/08/12 00:21:29;;;;;;;6.35;4.10;;;15.10;99.90;;;;;;5096992;28;20549;-74
2021/08/12 00:23:56;;;;;;;7.50;4.60;;;15.10;99.90;;;;;;5096819;28;20392;-74
2021/08/12 00:26:22;;;;;;;11.05;5.93;;;15.10;99.90;;;;;;5095549;28;20433;-74
2021/08/12 00:28:48;;;;;;;12.30;5.72;;;15.20;99.90;;;;;;5097277;28;20020;-74
2021/08/12 00:31:14;;;;;;;8.50;5.30;;;15.10;99.90;;;;;;5096839;28;20057;-74
2021/08/12 00:33:40;;;;;;;6.97;6.07;;;15.10;99.90;;;;;;5097126;28;20026;-74
2021/08/12 00:36:06;;;;;;;5.88;4.75;;;15.10;99.90;;;;;;5096815;28;20482;-74
2021/08/12 00:38:32;;;;;;;5.90;5.30;;;15.10;99.90;;;;;;5097023;28;20032;-74
2021/08/12 00:40:58;;;;;;;5.70;5.20;;;15.10;99.90;;;;;;5096666;28;20024;-74
2021/08/12 00:43:24;;;;;;;6.15;4.22;;;15.10;99.90;;;;;;5096965;28;20020;-74
2021/08/12 00:45:49;;;;;;;7.32;5.40;;;15.10;99.90;;;;;;5096860;28;20020;-74
2021/08/12 00:48:15;;;;;;;7.07;4.82;;;15.20;99.90;;;;;;5097048;28;20475;-74
2021/08/12 00:50:43;;;;;;;12.50;6.47;;;15.20;99.90;;;;;;5094966;28;20023;-74
2021/08/12 00:53:10;;;;;;;6.18;4.65;;;15.20;99.90;;;;;;5096876;28;20023;-74
2021/08/12 00:55:43;;;;;;;4.85;4.28;;;15.10;99.90;;;;;;5096406;28;20137;-74
2021/08/12 00:58:10;;;;;;;4.80;4.40;;;15.10;99.90;;;;;;5097052;28;20017;-75
2021/08/12 01:00:36;;;;;;;4.75;4.13;;;15.00;99.90;;;;;;5096541;28;20016;-74
2021/08/12 01:03:16;;;;;;;4.80;4.40;;;15.00;99.90;;;;;;5096690;28;20020;-74
2021/08/12 01:05:51;;;;;;;3.72;3.42;;;14.90;99.90;;;;;;5097003;28;20016;-75
2021/08/12 01:08:50;;;;;;;3.70;3.35;;;15.00;99.90;;;;;;5096425;28;20434;-74
2021/08/12 01:11:47;;;;;;;5.85;5.00;;;15.00;99.90;;;;;;5096401;28;20492;-74
2021/08/12 01:14:39;;;;;;;8.70;5.00;;;14.90;99.90;;;;;;5096806;28;20111;-74
2021/08/12 01:17:11;;;;;;;3.72;3.38;;;14.80;99.90;;;;;;5090899;28;20039;-74
2021/08/12 01:20:14;;;;;;;4.68;3.65;;;14.90;99.90;;;;;;5096457;28;20369;-74
2021/08/12 01:22:44;;;;;;;3.72;3.42;;;14.80;99.90;;;;;;5096618;28;20038;-74
2021/08/12 01:25:16;;;;;;;4.00;3.70;;;14.80;99.90;;;;;;5096239;28;20047;-74
2021/08/12 01:27:46;;;;;;;3.85;3.55;;;14.70;99.90;;;;;;5096523;28;20387;-74
2021/08/12 01:30:17;;;;;;;5.32;4.82;;;14.70;99.90;;;;;;5096791;28;20104;-74
2021/08/12 01:33:18;;;;;;;7.35;5.70;;;14.80;99.90;;;;;;5094998;28;20028;-75
2021/08/12 01:35:46;;;;;;;5.38;4.50;;;14.70;99.90;;;;;;5096266;28;20051;-74
2021/08/12 01:38:24;;;;;;;4.53;4.13;;;14.70;99.90;;;;;;5096478;28;20398;-74
2021/08/12 01:40:52;;;;;;;5.40;3.60;;;14.70;99.90;;;;;;5095913;28;20107;-73
2021/08/12 01:43:21;;;;;;;4.55;4.07;;;14.80;99.90;;;;;;5096445;28;20016;-74
2021/08/12 01:45:53;;;;;;;4.68;3.95;;;14.70;99.90;;;;;;5096142;28;20479;-74
2021/08/12 01:48:20;;;;;;;4.40;3.45;;;14.60;99.90;;;;;;5096206;28;20043;-74
2021/08/12 01:50:47;;;;;;;4.22;3.83;;;14.90;99.90;;;;;;5096072;28;20031;-74
2021/08/12 01:53:15;;;;;;;7.07;4.35;;;14.80;99.90;;;;;;5096290;28;20020;-74
2021/08/12 01:55:43;;;;;;;3.90;3.60;;;14.60;99.90;;;;;;5095991;28;20031;-74
2021/08/12 01:58:12;;;;;;;3.92;3.55;;;14.70;99.90;;;;;;5096444;28;20113;-74
2021/08/12 02:00:41;;;;;;;6.68;4.93;;;14.60;99.90;;;;;;5094967;28;20054;-74
2021/08/12 02:03:08;;;;;;;6.38;5.28;;;14.60;99.90;;;;;;5098437;28;20025;-74
2021/08/12 02:05:35;;;;;;;7.13;5.55;;;14.60;99.90;;;;;;5098547;28;20028;-73
2021/08/12 02:08:01;;;;;;;8.55;5.10;;;14.80;99.90;;;;;;5099843;28;20024;-74
2021/08/12 02:10:26;;;;;;;4.03;3.72;;;14.60;99.90;;;;;;5099431;28;20024;-74
2021/08/12 02:12:52;;;;;;;7.82;4.22;;;14.80;99.90;;;;;;5098179;28;20085;-74
2021/08/12 02:15:18;;;;;;;4.18;3.72;;;14.70;99.90;;;;;;5099651;28;20048;-74
2021/08/12 02:17:44;;;;;;;7.38;5.30;;;14.60;99.90;;;;;;5098201;28;20035;-75
2021/08/12 02:20:14;;;;;;;6.35;4.82;;;14.70;99.90;;;;;;5099824;28;20029;-74
2021/08/12 02:22:52;;;;;;;4.63;4.22;;;14.70;99.90;;;;;;5099645;28;20024;-74
2021/08/12 02:25:33;;;;;;;4.25;3.72;;;14.60;99.90;;;;;;5099238;28;20036;-74
2021/08/12 02:28:04;;;;;;;6.63;4.03;;;14.60;99.90;;;;;;5099197;28;20017;-75
2021/08/12 02:30:34;;;;;;;4.47;4.07;;;14.60;99.90;;;;;;5099427;28;20020;-74
2021/08/12 02:33:01;;;;;;;4.30;3.92;;;14.60;99.90;;;;;;5097688;28;20032;-74
2021/08/12 02:35:27;;;;;;;5.10;4.03;;;14.60;99.90;;;;;;5099190;28;20511;-74
2021/08/12 02:37:56;;;;;;;7.82;5.55;;;14.70;99.90;;;;;;5099058;28;20016;-74
2021/08/12 02:40:24;;;;;;;6.60;4.38;;;14.60;99.90;;;;;;5097504;28;20091;-74
2021/08/12 02:42:51;;;;;;;5.05;4.30;;;14.60;99.90;;;;;;5099050;28;20047;-74
2021/08/12 02:45:17;;;;;;;7.07;4.28;;;14.40;99.90;;;;;;5099088;28;20058;-75
2021/08/12 02:47:44;;;;;;;4.88;4.40;;;14.60;99.90;;;;;;5119689;28;20020;-75
2021/08/12 02:50:10;;;;;;;3.55;3.35;;;14.60;99.90;;;;;;5119480;28;20020;-74
2021/08/12 02:52:37;;;;;;;4.18;3.85;;;14.60;99.90;;;;;;5119316;28;20387;-74
2021/08/12 02:55:04;;;;;;;7.03;3.38;;;14.50;99.90;;;;;;5118858;28;20024;-74
2021/08/12 02:57:31;;;;;;;4.78;4.15;;;14.50;99.90;;;;;;5119448;28;20039;-75
2021/08/12 02:59:57;;;;;;;4.95;4.13;;;14.50;99.90;;;;;;5119041;28;20028;-74
2021/08/12 03:02:24;;;;;;;4.85;4.45;;;14.40;99.90;;;;;;5117741;28;20027;-75
2021/08/12 03:04:50;;;;;;;4.13;3.08;;;14.50;99.90;;;;;;5118994;28;20023;-74
2021/08/12 03:07:18;;;;;;;3.50;3.20;;;14.30;99.90;;;;;;5117706;28;20030;-74
2021/08/12 03:09:48;;;;;;;4.05;3.45;;;14.20;99.90;;;;;;5118592;28;20027;-74
2021/08/12 03:12:18;;;;;;;6.32;3.67;;;14.10;99.90;;;;;;5119063;28;20024;-74
2021/08/12 03:14:45;;;;;;;8.63;3.53;;;14.40;99.90;;;;;;5118315;28;20035;-75
2021/08/12 03:17:11;;;;;;;4.03;3.50;;;14.20;99.90;;;;;;5119246;28;20383;-74
2021/08/12 03:19:40;;;;;;;4.13;3.22;;;14.10;99.90;;;;;;5118667;28;20099;-74
2021/08/12 03:22:14;;;;;;;4.78;4.05;;;14.20;99.90;;;;;;5118780;28;20514;-74
2021/08/12 03:24:43;;;;;;;3.90;3.60;;;14.10;99.90;;;;;;5118425;28;20061;-74
2021/08/12 03:27:11;;;;;;;4.95;3.28;;;14.00;99.90;;;;;;5106704;28;20024;-74
2021/08/12 03:29:38;;;;;;;4.07;3.63;;;14.00;99.90;;;;;;5098079;28;20051;-74
2021/08/12 03:32:04;;;;;;;5.00;4.43;;;13.90;99.90;;;;;;5096676;28;20122;-74
2021/08/12 03:34:31;;;;;;;3.67;3.38;;;13.80;99.90;;;;;;5097990;28;20081;-74
2021/08/12 03:36:57;;;;;;;3.92;3.20;;;13.90;99.90;;;;;;5097919;28;20083;-75
2021/08/12 03:39:23;;;;;;;4.28;3.70;;;14.00;99.90;;;;;;5097533;28;20480;-75
2021/08/12 03:41:50;;;;;;;3.25;3.05;;;14.00;99.90;;;;;;5097904;28;20031;-74
2021/08/12 03:44:17;;;;;;;4.03;3.13;;;13.60;99.90;;;;;;5097730;28;20028;-74
2021/08/12 03:46:42;;;;;;;3.78;3.45;;;13.70;99.90;;;;;;5098132;28;20031;-75
2021/08/12 03:49:08;;;;;;;3.97;3.58;;;13.60;99.90;;;;;;5097864;28;20024;-75
2021/08/12 03:51:34;;;;;;;3.72;3.40;;;13.60;99.90;;;;;;5097679;28;20052;-74
2021/08/12 03:54:00;;;;;;;4.60;4.20;;;13.70;99.90;;;;;;5095955;28;20020;-74
2021/08/12 03:56:26;;;;;;;5.85;4.00;;;13.70;99.90;;;;;;5097722;28;20020;-74
2021/08/12 03:58:52;;;;;;;3.70;3.40;;;13.60;99.90;;;;;;5097596;28;20062;-74
2021/08/12 04:01:18;;;;;;;4.90;2.67;;;13.60;99.90;;;;;;5097479;28;20020;-74
2021/08/12 04:03:44;;;;;;;4.13;3.58;;;13.50;99.90;;;;;;5097481;28;20077;-75
2021/08/12 04:06:10;;;;;;;3.45;2.65;;;13.60;99.90;;;;;;5097766;28;20096;-74
2021/08/12 04:08:35;;;;;;;3.30;3.00;;;13.50;99.90;;;;;;5095945;28;20059;-75
2021/08/12 04:11:02;;;;;;;3.78;3.40;;;13.30;99.90;;;;;;5097221;28;20046;-74
2021/08/12 04:13:28;;;;;;;3.88;3.47;;;13.20;99.90;;;;;;5097312;28;20024;-74
2021/08/12 04:15:58;;;;;;;3.38;3.08;;;13.10;99.90;;;;;;5097260;28;20023;-74
2021/08/12 04:18:24;;;;;;;4.45;3.15;;;13.20;99.90;;;;;;5097204;28;20095;-74
2021/08/12 04:20:50;;;;;;;3.47;3.17;;;13.20;99.90;;;;;;5097197;28;20020;-73
2021/08/12 04:23:16;;;;;;;3.40;3.05;;;13.10;99.90;;;;;;5097103;28;20396;-74
2021/08/12 04:25:42;;;;;;;6.63;3.70;;;13.00;99.90;;;;;;5096251;28;20391;-75
2021/08/12 04:28:08;;;;;;;3.03;2.80;;;13.60;99.90;;;;;;5097260;28;20055;-74
2021/08/12 04:30:34;;;;;;;4.32;3.10;;;13.10;99.90;;;;;;5097200;28;20483;-74
2021/08/12 04:33:00;;;;;;;3.90;3.47;;;13.30;99.90;;;;;;5095440;28;20024;-74
2021/08/12 04:35:26;;;;;;;3.95;3.60;;;13.10;99.90;;;;;;5096960;28;20056;-74
2021/08/12 04:37:52;;;;;;;3.58;3.33;;;13.20;99.90;;;;;;5096844;28;20074;-74
2021/08/12 04:40:20;;;;;;;9.63;2.80;;;13.00;99.90;;;;;;5096499;28;20039;-74
2021/08/12 04:42:48;;;;;;;3.25;3.05;;;13.00;99.90;;;;;;5096760;28;20028;-75
2021/08/12 04:45:14;;;;;;;4.90;2.85;;;13.00;99.90;;;;;;5096884;28;20020;-75
2021/08/12 04:47:40;;;;;;;4.03;3.65;;;13.00;99.90;;;;;;5097114;28;20048;-74
2021/08/12 04:50:08;;;;;;;4.35;3.60;;;13.10;99.90;;;;;;5096789;28;20441;-75
2021/08/12 04:52:34;;;;;;;3.75;3.35;;;12.80;99.90;;;;;;5096693;28;20039;-74
2021/08/12 04:55:00;;;;;;;4.60;4.20;;;13.10;99.90;;;;;;5096559;28;20480;-74
2021/08/12 04:57:26;;;;;;;3.40;3.13;;;12.80;99.90;;;;;;5095491;28;20565;-74
2021/08/12 04:59:51;;;;;;;3.22;3.00;;;13.10;99.90;;;;;;5096897;28;20032;-75
2021/08/12 05:02:17;;;;;;;3.10;2.90;;;12.90;99.90;;;;;;5095210;28;20031;-74
2021/08/12 05:04:43;;;;;;;3.45;3.15;;;13.00;99.90;;;;;;5096825;28;20055;-74
2021/08/12 05:07:09;;;;;;;3.30;3.00;;;13.00;99.90;;;;;;5096903;28;20518;-75
2021/08/12 05:09:35;;;;;;;3.05;2.75;;;13.00;99.90;;;;;;5096393;28;20211;-74
2021/08/12 05:12:01;;;;;;;4.53;4.13;;;12.80;99.90;;;;;;5096572;28;20031;-74
2021/08/12 05:14:28;;;;;;;7.70;5.45;;;12.60;99.90;;;;;;5096632;28;20028;-74
2021/08/12 05:16:53;;;;;;;7.90;7.07;;;13.00;99.90;;;;;;5096463;28;20365;-75
2021/08/12 05:19:19;;;;;;;8.95;6.78;;;13.00;99.90;;;;;;5095247;28;20054;-75
2021/08/12 05:21:45;;;;;;;13.30;6.22;;;13.50;99.90;;;;;;5096212;28;20054;-75
2021/08/12 05:24:11;;;;;;;6.35;5.80;;;13.50;99.90;;;;;;5096452;28;20050;-74
2021/08/12 05:26:37;;;;;;;5.30;4.80;;;13.60;99.90;;;;;;5096317;28;20043;-74
2021/08/12 05:29:05;;;;;;;4.57;3.72;;;13.40;99.90;;;;;;5096618;28;20087;-74
2021/08/12 05:31:31;;;;;;;3.33;2.88;;;13.50;99.90;;;;;;5096326;28;20027;-74
2021/08/12 05:33:57;;;;;;;3.58;2.83;;;13.50;99.90;;;;;;5096587;28;20036;-74
2021/08/12 05:36:22;;;;;;;3.80;2.65;;;13.50;99.90;;;;;;5097635;28;20534;-74
2021/08/12 05:38:48;;;;;;;6.85;4.57;;;13.60;99.90;;;;;;5099947;28;20027;-75
2021/08/12 05:41:14;;;;;;;4.38;3.60;;;13.70;99.90;;;;;;5100170;28;20024;-75
2021/08/12 05:43:40;;;;;;;3.53;3.20;;;13.60;99.90;;;;;;5099145;28;20028;-74
2021/08/12 05:46:06;;;;;;;4.63;3.25;;;13.50;99.90;;;;;;5100414;28;20027;-74
2021/08/12 05:48:31;;;;;;;7.28;6.53;;;13.90;99.90;;;;;;5100201;28;20035;-74
2021/08/12 05:50:57;;;;;;;8.00;6.57;;;14.00;99.90;;;;;;5100266;28;20016;-74
2021/08/12 05:53:23;;;;;;;8.25;6.07;;;14.10;99.90;;;;;;5099888;28;20020;-74
2021/08/12 05:55:49;;;;;;;5.82;5.32;;;14.40;99.90;;;;;;5099751;28;20008;-74
2021/08/12 05:58:15;;;;;;;6.07;5.47;;;14.40;99.90;;;;;;5100096;28;20032;-75
2021/08/12 06:00:41;;;;;;;10.27;8.00;;;14.70;99.90;;;;;;5100137;28;20016;-74
2021/08/12 06:03:09;;;;;;;14.68;8.95;;;14.80;99.90;;;;;;5099803;28;20031;-74
2021/08/12 06:05:35;;;;;;;11.38;6.95;;;;;;;;;;5099950;28;20039;-74
2021/08/12 06:08:04;;;;;;;7.45;6.75;;;15.20;99.90;;;;;;5099705;28;20098;-74
2021/08/12 06:10:30;;;;;;;8.80;5.85;;;15.30;99.90;;;;;;5099685;28;20066;-74
2021/08/12 06:12:56;;;;;;;8.52;5.45;;;15.70;99.90;;;;;;5099546;28;20055;-74
2021/08/12 06:15:26;;;;;;;5.28;4.78;;;;;;;;;;5099833;28;20095;-74
2021/08/12 06:17:53;;;;;;;7.07;6.38;;;16.20;99.90;;;;;;5099526;28;20027;-74
2021/08/12 06:20:20;;;;;;;6.38;5.13;;;16.80;99.90;;;;;;5098278;28;20058;-74
2021/08/12 06:22:49;;;;;;;7.85;5.20;;;16.80;99.90;;;;;;5099440;28;20016;-74
2021/08/12 06:25:15;;;;;;;5.85;5.35;;;17.20;99.90;;;;;;5099323;28;20103;-74
2021/08/12 06:27:41;;;;;;;6.65;4.70;;;16.70;99.90;;;;;;5099363;28;20044;-74
2021/08/12 06:30:09;;;;;;;4.85;4.07;;;17.90;99.90;;;;;;5099479;28;20024;-74
2021/08/12 06:32:35;;;;;;;4.43;3.72;;;18.00;99.90;;;;;;5099053;28;20534;-74
2021/08/12 06:35:02;;;;;;;7.75;5.10;;;18.30;99.90;;;;;;5099313;28;20075;-74
2021/08/12 06:37:31;;;;;;;9.93;5.25;;;18.30;99.90;;;;;;5099147;28;20020;-74
2021/08/12 06:39:57;;;;;;;4.35;3.42;;;18.20;99.90;;;;;;5098886;28;20392;-74
2021/08/12 06:42:23;;;;;;;5.70;4.53;;;18.00;99.90;;;;;;5097676;28;20035;-73
2021/08/12 06:44:49;;;;;;;7.43;4.90;;;17.90;99.90;;;;;;5097837;28;20028;-73
2021/08/12 06:47:15;;;;;;;5.03;4.05;;;17.70;99.90;;;;;;5098516;28;20396;-74
2021/08/12 06:49:41;;;;;;;6.20;4.68;;;17.90;99.90;;;;;;5098889;28;20111;-74
2021/08/12 06:52:07;;;;;;;7.03;5.10;;;18.10;99.90;;;;;;5098786;28;20024;-74
2021/08/12 06:54:33;;;;;;;5.53;5.03;;;18.10;99.90;;;;;;5098723;28;20548;-73
2021/08/12 06:56:59;;;;;;;6.47;4.65;;;18.00;99.90;;;;;;5097482;28;20027;-74
2021/08/12 06:59:25;;;;;;;10.20;5.20;;;18.00;99.90;;;;;;5098890;28;20027;-74
2021/08/12 07:01:50;;;;;;;8.50;4.80;;;18.00;99.90;;;;;;5098556;28;20035;-74
2021/08/12 07:04:16;;;;;;;8.68;5.00;;;18.00;99.90;;;;;;5098667;28;20089;-74
2021/08/12 07:06:42;;;;;;;6.97;3.97;;;17.90;99.90;;;;;;5098721;28;20065;-74
2021/08/12 07:09:08;;;;;;;6.72;3.97;;;18.00;99.90;;;;;;5098733;28;20021;-74
2021/08/12 07:11:33;;;;;;;8.77;4.40;;;18.20;99.90;;;;;;5098424;28;20092;-74
2021/08/12 07:13:59;;;;;;;7.85;4.35;;;18.30;99.90;;;;;;5098688;28;20050;-74
2021/08/12 07:16:25;;;;;;;5.03;4.50;;;18.50;99.90;;;;;;5097067;28;20020;-74
2021/08/12 07:18:51;;;;;;;7.35;5.18;;;18.70;99.90;;;;;;5098688;28;20174;-74
2021/08/12 07:21:19;;;;;;;4.30;3.80;;;18.90;99.90;;;;;;5098123;28;20024;-74
2021/08/12 07:23:46;;;;;;;7.72;4.60;;;18.90;99.90;;;;;;5098128;28;20384;-74
2021/08/12 07:26:14;;;;;;;11.68;5.68;;;18.70;99.90;;;;;;5098210;28;20020;-74
2021/08/12 07:28:45;;;;;;;13.05;5.50;;;18.50;99.90;;;;;;5097084;28;20046;-74
2021/08/12 07:31:13;;;;;;;6.40;5.40;;;18.40;99.90;;;;;;5096886;28;20156;-74
2021/08/12 07:33:39;;;;;;;7.65;4.75;;;18.80;99.90;;;;;;5097904;28;20456;-74
2021/08/12 07:36:06;;;;;;;6.70;4.75;;;20.00;99.90;;;;;;5097860;28;20072;-74
2021/08/12 07:38:32;;;;;;;6.78;4.65;;;;;;;;;;5096389;28;20043;-74
2021/08/12 07:40:59;;;;;;;5.05;4.00;;;21.20;99.90;;;;;;5097815;28;20027;-74
2021/08/12 07:43:26;;;;;;;6.43;3.70;;;21.30;99.90;;;;;;5097912;28;20024;-74
2021/08/12 07:45:52;;;;;;;7.40;4.53;;;21.20;99.90;;;;;;5097824;28;20024;-74
2021/08/12 07:48:18;;;;;;;6.00;4.32;;;20.80;99.90;;;;;;5097932;28;20472;-74
2021/08/12 07:50:44;;;;;;;8.52;4.13;;;20.50;99.90;;;;;;5097739;28;20072;-74
2021/08/12 07:53:10;;;;;;;4.10;3.55;;;20.20;99.90;;;;;;5097807;28;20115;-73
2021/08/12 07:55:37;;;;;;;7.13;4.57;;;20.00;99.90;;;;;;5097329;28;20491;-74
2021/08/12 07:58:03;;;;;;;6.32;4.88;;;20.00;99.90;;;;;;5097738;28;20744;-74
2021/08/12 08:00:29;;;;;;;6.50;4.28;;;19.90;99.90;;;;;;5097484;28;20099;-74
2021/08/12 08:02:55;;;;;;;6.10;4.35;;;19.90;99.90;;;;;;5097459;28;20051;-73
2021/08/12 08:05:23;;;;;;;4.40;3.78;;;19.90;99.90;;;;;;5097491;28;20028;-74
2021/08/12 08:07:50;;;;;;;4.43;4.00;;;20.00;99.90;;;;;;5097546;28;20020;-74
2021/08/12 08:10:18;;;;;;;5.55;4.78;;;20.20;99.90;;;;;;5096964;28;20035;-74
2021/08/12 08:12:44;;;;;;;8.00;5.00;;;20.20;99.90;;;;;;5097416;28;20031;-74
2021/08/12 08:15:12;;;;;;;5.78;4.60;;;20.10;99.90;;;;;;5097395;28;20020;-73
2021/08/12 08:17:38;;;;;;;5.80;4.47;;;20.10;99.90;;;;;;5097613;28;20024;-74
2021/08/12 08:20:06;;;;;;;7.18;4.72;;;20.10;99.90;;;;;;5097219;28;20031;-74
2021/08/12 08:22:32;;;;;;;5.75;3.83;;;20.10;99.90;;;;;;5097280;28;20026;-73
2021/08/12 08:24:58;;;;;;;5.00;3.90;;;20.20;99.90;;;;;;5096749;28;20103;-74
2021/08/12 08:27:24;;;;;;;4.38;3.15;;;20.30;99.90;;;;;;5097165;28;20026;-73
2021/08/12 08:29:51;;;;;;;9.60;3.95;;;20.50;99.90;;;;;;5097030;28;20032;-73
2021/08/12 08:32:18;;;;;;;4.13;3.72;;;21.10;99.90;;;;;;5096930;28;20024;-74
2021/08/12 08:34:44;;;;;;;7.25;4.53;;;21.50;99.90;;;;;;5096770;28;20110;-74
2021/08/12 08:37:10;;;;;;;5.07;3.92;;;;;;;;;;5097296;28;20063;-73
2021/08/12 08:39:36;;;;;;;5.85;3.90;;;23.10;99.90;;;;;;5096690;28;20062;-73
2021/08/12 08:42:03;;;;;;;5.57;3.63;;;24.00;99.90;;;;;;5096809;28;20620;-74
2021/08/12 08:44:30;;;;;;;5.05;3.58;;;24.90;99.90;;;;;;5096942;28;20051;-73
2021/08/12 08:46:58;;;;;;;5.25;4.15;;;25.50;99.90;;;;;;5096903;28;20043;-73
2021/08/12 08:49:25;;;;;;;2.95;2.65;;;25.60;99.90;;;;;;5097020;28;20020;-73
2021/08/12 08:51:51;;;;;;;3.42;2.50;;;26.30;99.90;;;;;;5095328;28;20028;-73
2021/08/12 08:54:18;;;;;;;3.90;3.20;;;27.40;99.90;;;;;;5096530;28;20631;-73
2021/08/12 08:56:45;;;;;;;3.00;2.50;;;28.00;99.90;;;;;;5096822;28;20016;-73
2021/08/12 08:59:11;;;;;;;3.53;3.17;;;28.50;99.90;;;;;;5097103;28;20111;-73
2021/08/12 09:01:40;;;;;;;5.85;3.17;;;28.60;99.90;;;;;;5096551;28;20031;-73
2021/08/12 09:04:06;;;;;;;4.82;3.22;;;28.80;99.90;;;;;;5096590;28;20024;-73
2021/08/12 09:06:32;;;;;;;4.38;3.38;;;29.30;99.90;;;;;;5096688;28;20387;-73
2021/08/12 09:08:58;;;;;;;3.35;2.65;;;29.40;99.90;;;;;;5096401;28;20021;-73
2021/08/12 09:11:25;;;;;;;5.05;3.13;;;30.00;99.90;;;;;;5097925;28;20388;-73
2021/08/12 09:13:52;;;;;;;4.70;2.65;;;29.90;99.90;;;;;;5100918;28;20089;-73
2021/08/12 09:16:37;;;;;;;4.57;2.35;;;29.80;99.90;;;;;;5100717;28;20016;-73
2021/08/12 09:19:20;;;;;;;2.17;1.80;;;30.20;99.90;;;;;;5100835;28;20032;-73
2021/08/12 09:21:56;;;;;;;3.25;2.45;;;31.00;99.90;;;;;;5100804;28;20028;-73
2021/08/12 09:24:23;;;;;;;5.28;3.13;;;31.20;96.30;;;;;;5100314;28;20013;-73
2021/08/12 09:26:49;;;;;;;3.20;2.90;;;30.90;97.50;;;;;;5100588;28;20020;-73
2021/08/12 09:29:32;;;;;;;3.22;2.50;;;31.20;98.40;;;;;;5100418;28;20468;-73
2021/08/12 09:32:01;;;;;;;2.50;2.00;;;31.30;97.00;;;;;;5100428;28;20053;-73
2021/08/12 09:34:47;;;;;;;3.85;2.95;;;31.50;97.50;;;;;;5100459;28;20055;-73
2021/08/12 09:37:13;;;;;;;4.38;2.25;;;31.80;95.70;;;;;;5100390;28;20525;-73
2021/08/12 09:39:41;;;;;;;3.00;2.15;;;32.00;96.60;;;;;;5099941;28;20149;-73
2021/08/12 09:42:09;;;;;;;3.90;2.75;;;32.20;95.90;;;;;;5100078;28;20050;-73
2021/08/12 09:44:51;;;;;;;4.80;3.15;;;32.60;93.20;;;;;;5100366;28;20024;-73
2021/08/12 09:47:19;;;;;;;5.93;3.05;;;32.70;93.50;;;;;;5100182;28;20105;-72
2021/08/12 09:49:48;;;;;;;4.78;3.53;;;32.80;94.30;;;;;;5100400;28;20468;-73
2021/08/12 09:52:32;;;;;;;3.38;2.25;;;33.40;93.70;;;;;;5099934;28;20027;-73
2021/08/12 09:54:59;;;;;;;4.05;3.05;;;33.50;93.80;;;;;;5099832;28;20054;-73
2021/08/12 09:57:33;;;;;;;4.50;3.08;;;33.70;94.10;;;;;;5100159;28;20034;-72
2021/08/12 09:59:59;;;;;;;5.15;3.40;;;33.40;92.80;;;;;;5100170;28;20036;-72
2021/08/12 10:02:31;;;;;;;4.97;2.95;;;33.30;92.60;;;;;;5099678;28;20035;-73
2021/08/12 10:05:06;;;;;;;5.60;2.95;;;33.40;92.90;;;;;;5099915;28;20060;-72
2021/08/12 10:07:48;;;;;;;2.53;1.85;;;33.70;92.40;;;;;;5099956;28;20016;-72
2021/08/12 10:10:18;;;;;;;3.35;2.58;;;33.80;91.90;;;;;;5099571;28;20027;-72
2021/08/12 10:12:52;;;;;;;5.18;2.75;;;34.20;91.70;;;;;;5098453;28;20027;-72
2021/08/12 10:15:19;;;;;;;;;;;34.10;90.30;;;;;;5100078;28;20020;-72
2021/08/12 10:17:46;;;;;;;5.13;2.42;;;34.10;90.20;;;;;;5099771;28;19912;-72
2021/08/12 10:20:18;;;;;;;3.78;2.92;;;34.40;90.20;;;;;;5099784;28;20025;-72
2021/08/12 10:22:46;;;;;;;3.53;2.40;;;34.60;89.00;;;;;;5098157;28;20030;-72
2021/08/12 10:25:13;;;;;;;3.92;2.10;;;34.50;88.10;;;;;;5099164;28;20385;-72
2021/08/12 10:27:41;;;;;;;2.47;1.75;;;34.50;88.20;;;;;;5099476;28;20027;-72
2021/08/12 10:30:09;;;;;;;2.97;2.72;;;34.70;88.90;;;;;;5099617;28;20036;-72
2021/08/12 10:32:37;;;;;;;2.72;2.17;;;34.50;83.90;;;;;;5099056;28;20016;-72
2021/08/12 10:35:07;;;;;;;3.40;2.38;;;34.30;86.00;;;;;;5099257;28;20044;-72
2021/08/12 10:37:33;;;;;;;4.80;2.25;;;34.50;86.60;;;;;;5099159;28;20448;-72
2021/08/12 10:39:59;;;;;;;3.35;2.15;;;34.90;86.80;;;;;;5098833;28;20107;-72
2021/08/12 10:42:25;;;;;;;3.13;2.42;;;35.90;84.10;;;;;;5098883;28;20031;-72
2021/08/12 10:44:51;;;;;;;6.28;2.42;;;35.90;84.70;;;;;;5099173;28;20028;-72
2021/08/12 10:47:40;;;;;;;3.97;2.35;;;36.00;82.60;;;;;;5098916;28;20107;-72
2021/08/12 10:50:40;;;;;;;3.25;2.03;;;36.20;81.60;;;;;;5098963;28;20522;-72
2021/08/12 10:53:13;;;;;;;4.15;2.63;;;36.60;79.70;;;;;;5098830;28;20032;-72
2021/08/12 10:55:39;;;;;;;3.30;1.98;;;36.60;79.60;;;;;;5098650;28;20059;-72
2021/08/12 10:58:26;;;;;;;2.80;2.05;;;36.30;77.60;;;;;;5098898;28;20031;-72
2021/08/12 11:00:56;;;;;;;4.20;2.33;;;36.60;78.70;;;;;;5098971;28;20072;-72
2021/08/12 11:03:34;;;;;;;3.28;2.50;;;36.80;76.10;;;;;;5098492;28;20012;-72
2021/08/12 11:06:00;;;;;;;6.00;2.03;;;36.10;76.60;;;;;;5098794;28;20494;-72
2021/08/12 11:08:44;;;;;;;3.15;2.47;;;36.00;77.80;;;;;;5098282;28;20035;-72
2021/08/12 11:11:10;;;;;;;2.13;1.90;;;35.90;75.50;;;;;;5098781;28;20079;-72
2021/08/12 11:13:36;;;;;;;1.50;1.40;;;35.80;77.60;;;;;;5098480;28;20512;-72
2021/08/12 11:16:02;;;;;;;3.33;2.40;;;36.10;78.40;;;;;;5098516;28;20186;-72
2021/08/12 11:18:48;;;;;;;2.50;2.30;;;36.60;78.00;;;;;;5098415;28;20012;-72
2021/08/12 11:21:32;;;;;;;2.97;2.53;;;36.20;73.70;;;;;;5098156;28;20034;-72
2021/08/12 11:24:02;;;;;;;4.03;2.30;;;34.80;75.60;;;;;;5098087;28;20522;-72
2021/08/12 11:26:46;;;;;;;6.25;2.40;;;34.00;78.90;;;;;;5098181;28;20020;-72
2021/08/12 11:31:49;;;;;;;3.65;2.38;;;34.70;88.60;;;;;;5098372;28;20024;-72
2021/08/12 11:34:31;;;;;;;2.85;2.10;;;34.80;87.90;;;;;;5097905;28;20031;-72
2021/08/12 11:37:14;;;;;;;5.22;2.58;;;34.60;87.30;;;;;;5096605;28;20052;-72
2021/08/12 11:40:06;;;;;;;3.83;2.08;;;34.80;87.70;;;;;;5097893;28;20484;-72
2021/08/12 11:42:38;;;;;;;4.07;2.08;;;35.00;87.10;;;;;;5097862;28;20307;-72
2021/08/12 11:45:13;;;;;;;4.25;2.17;;;35.40;86.40;;;;;;5096698;28;20016;-72
2021/08/12 11:47:42;;;;;;;2.97;2.20;;;35.60;79.70;;;;;;5097964;28;20373;-72
2021/08/12 11:50:11;;;;;;;1.92;1.55;;;35.90;81.60;;;;;;5098095;28;20069;-72
2021/08/12 11:52:49;;;;;;;4.22;2.28;;;36.50;87.40;;;;;;5097690;28;20019;-72
2021/08/12 11:55:21;;;;;;;3.05;2.42;;;36.80;75.50;;;;;;5097337;28;20488;-72
2021/08/12 11:57:51;;;;;;;2.20;1.73;;;37.20;75.10;;;;;;5097718;28;20373;-72
2021/08/12 12:00:21;;;;;;;2.40;1.70;;;37.40;73.30;;;;;;5097542;28;20024;-72
2021/08/12 12:02:52;;;;;;;3.28;1.73;;;37.10;73.80;;;;;;5097510;28;20054;-72
2021/08/12 12:05:21;;;;;;;2.83;1.75;;;37.50;74.90;;;;;;5097540;28;20019;-72
2021/08/12 12:07:55;;;;;;;2.08;1.63;;;37.50;72.30;;;;;;5097524;28;20464;-72
2021/08/12 12:10:25;;;;;;;2.78;1.73;;;37.60;71.90;;;;;;5097042;28;20012;-72
2021/08/12 12:12:51;;;;;;;5.55;2.10;;;36.80;72.50;;;;;;5097295;28;20069;-72
2021/08/12 12:15:34;;;;;;;2.78;1.92;;;36.40;73.00;;;;;;5097553;28;20028;-72
2021/08/12 12:18:01;;;;;;;3.97;2.83;;;36.00;71.30;;;;;;5097298;28;20388;-72
2021/08/12 12:20:27;;;;;;;2.60;2.00;;;36.00;72.80;;;;;;5097507;28;20028;-72
2021/08/12 12:22:58;;;;;;;2.15;1.30;;;36.00;72.90;;;;;;5097068;28;20028;-72
2021/08/12 12:25:24;;;;;;;3.70;2.10;;;36.10;74.70;;;;;;5097017;28;20016;-72
2021/08/12 12:27:50;;;;;;;2.85;1.67;;;36.70;75.00;;;;;;5096956;28;20036;-72
2021/08/12 12:30:17;;;;;;;3.90;1.52;;;37.10;73.50;;;;;;5097383;28;20530;-72
2021/08/12 12:32:44;;;;;;;2.35;1.63;;;37.20;71.70;;;;;;5096861;28;20028;-72
2021/08/12 12:35:12;;;;;;;2.45;1.70;;;35.50;71.50;;;;;;5096873;28;20052;-72
2021/08/12 12:37:41;;;;;;;3.35;2.13;;;35.50;72.10;;;;;;5097000;28;20028;-72
2021/08/12 12:40:17;;;;;;;1.67;1.58;;;35.50;75.30;;;;;;5096621;28;20488;-72
2021/08/12 12:42:43;;;;;;;3.22;2.67;;;35.80;75.40;;;;;;5096872;28;20028;-72
2021/08/12 12:45:11;;;;;;;1.77;1.33;;;36.10;73.30;;;;;;5096858;28;20529;-72
2021/08/12 12:47:38;;;;;;;3.47;2.58;;;36.70;75.20;;;;;;5096465;28;20028;-72
2021/08/12 12:50:06;;;;;;;2.72;1.95;;;36.40;71.80;;;;;;5096710;28;20024;-72
2021/08/12 12:52:32;;;;;;;4.32;1.90;;;34.30;74.10;;;;;;5096483;28;20330;-72
2021/08/12 12:54:58;;;;;;;2.47;2.10;;;34.20;75.00;;;;;;5096488;28;20032;-72
2021/08/12 12:57:34;;;;;;;3.42;2.38;;;33.90;78.20;;;;;;5096702;28;20020;-72
2021/08/12 13:00:01;;;;;;;4.20;2.72;;;34.60;78.10;;;;;;5096983;28;20021;-72